createdAt,value
2023-01-29T00:00:08.498Z,81.72
2023-01-29T00:01:08.493Z,81.65
2023-01-29T00:02:08.556Z,81.86
2023-01-29T00:03:08.481Z,81.96
2023-01-29T00:04:08.463Z,82.28
2023-01-29T00:05:26.055Z,82.49
2023-01-29T00:06:10.464Z,82.49
2023-01-29T00:07:08.476Z,83.12
2023-01-29T00:08:08.446Z,83.44
2023-01-29T00:09:08.427Z,84.06
2023-01-29T00:10:08.418Z,83.96
2023-01-29T00:11:08.435Z,83.86
2023-01-29T00:12:08.439Z,84.42
2023-01-29T00:13:08.410Z,84.59
2023-01-29T00:14:08.413Z,84.27
2023-01-29T00:15:08.391Z,83.79
2023-01-29T00:16:08.393Z,84.20
2023-01-29T00:17:08.479Z,84.63
2023-01-29T00:18:08.376Z,84.73
2023-01-29T00:19:08.365Z,84.69
2023-01-29T00:20:08.367Z,84.94
2023-01-29T00:21:08.337Z,84.63
2023-01-29T00:22:08.363Z,84.84
2023-01-29T00:23:08.332Z,84.94
2023-01-29T00:24:08.360Z,84.84
2023-01-29T00:25:08.318Z,84.73
2023-01-29T00:26:08.305Z,84.73
2023-01-29T00:27:08.338Z,84.63
2023-01-29T00:28:08.304Z,85.08
2023-01-29T00:29:08.286Z,84.35
2023-01-29T00:30:08.288Z,84.35
2023-01-29T00:31:08.422Z,84.63
2023-01-29T00:32:08.395Z,84.67
2023-01-29T00:33:08.262Z,84.67
2023-01-29T00:34:08.257Z,84.98
2023-01-29T00:35:08.246Z,85.61
2023-01-29T00:36:08.249Z,85.72
2023-01-29T00:37:08.267Z,85.08
2023-01-29T00:38:08.245Z,85.19
2023-01-29T00:39:08.227Z,85.82
2023-01-29T00:40:08.226Z,85.55
2023-01-29T00:41:08.202Z,85.44
2023-01-29T00:42:08.223Z,85.65
2023-01-29T00:43:08.194Z,85.65
2023-01-29T00:44:08.183Z,85.96
2023-01-29T00:45:08.189Z,86.28
2023-01-29T00:46:08.173Z,86.18
2023-01-29T00:47:08.193Z,85.75
2023-01-29T00:48:08.154Z,86.07
2023-01-29T00:49:08.145Z,86.74
2023-01-29T00:50:08.145Z,87.44
2023-01-29T00:51:08.137Z,87.33
2023-01-29T00:52:08.161Z,87.48
2023-01-29T00:53:08.131Z,87.23
2023-01-29T00:54:08.145Z,86.70
2023-01-29T00:55:08.110Z,86.80
2023-01-29T00:56:08.136Z,86.74
2023-01-29T00:57:08.106Z,87.37
2023-01-29T00:58:08.102Z,87.27
2023-01-29T00:59:08.144Z,87.37
2023-01-29T01:00:08.085Z,87.52
2023-01-29T01:01:08.141Z,87.79
2023-01-29T01:02:08.089Z,87.52
2023-01-29T01:03:08.047Z,87.27
2023-01-29T01:04:08.051Z,87.48
2023-01-29T01:05:08.048Z,87.37
2023-01-29T01:06:08.071Z,87.48
2023-01-29T01:07:08.042Z,88.04
2023-01-29T01:08:08.022Z,87.73
2023-01-29T01:09:08.011Z,87.73
2023-01-29T01:10:08.015Z,87.90
2023-01-29T01:11:08.033Z,87.93
2023-01-29T01:12:07.995Z,88.21
2023-01-29T01:13:07.982Z,88.21
2023-01-29T01:14:07.976Z,88.99
2023-01-29T01:15:07.985Z,88.84
2023-01-29T01:16:07.970Z,87.83
2023-01-29T01:17:07.988Z,87.58
2023-01-29T01:18:07.960Z,87.73
2023-01-29T01:19:07.939Z,87.73
2023-01-29T01:20:07.959Z,87.83
2023-01-29T01:21:07.922Z,88.46
2023-01-29T01:22:07.999Z,88.25
2023-01-29T01:23:07.921Z,88.46
2023-01-29T01:24:07.920Z,88.78
2023-01-29T01:25:07.911Z,88.99
2023-01-29T01:26:07.890Z,88.99
2023-01-29T01:27:07.986Z,88.99
2023-01-29T01:28:07.883Z,89.20
2023-01-29T01:29:07.864Z,88.99
2023-01-29T01:30:07.864Z,89.09
2023-01-29T01:31:07.930Z,88.99
2023-01-29T01:32:07.881Z,88.99
2023-01-29T01:33:07.834Z,89.09
2023-01-29T01:34:07.836Z,88.78
2023-01-29T01:35:07.827Z,88.99
2023-01-29T01:36:07.822Z,88.92
2023-01-29T01:37:07.847Z,88.92
2023-01-29T01:38:07.816Z,88.92
2023-01-29T01:39:07.806Z,88.92
2023-01-29T01:40:07.794Z,88.92
2023-01-29T01:41:07.785Z,89.14
2023-01-29T01:42:07.798Z,89.34
2023-01-29T01:43:07.767Z,89.24
2023-01-29T01:44:07.760Z,89.28
2023-01-29T01:45:07.761Z,89.81
2023-01-29T01:46:07.795Z,89.91
2023-01-29T01:47:07.768Z,89.81
2023-01-29T01:48:07.741Z,90.12
2023-01-29T01:49:07.746Z,90.33
2023-01-29T01:50:07.722Z,90.44
2023-01-29T01:51:07.719Z,90.33
2023-01-29T01:52:07.736Z,90.65
2023-01-29T01:53:07.703Z,90.69
2023-01-29T01:54:07.703Z,91.17
2023-01-29T01:55:07.696Z,90.65
2023-01-29T01:56:07.680Z,90.06
2023-01-29T01:57:07.702Z,90.97
2023-01-29T01:58:07.663Z,91.22
2023-01-29T01:59:07.656Z,91.11
2023-01-29T02:00:07.652Z,90.80
2023-01-29T02:01:07.675Z,91.22
2023-01-29T02:02:07.689Z,90.90
2023-01-29T02:03:07.661Z,91.11
2023-01-29T02:04:08.619Z,91.22
2023-01-29T02:05:07.627Z,91.64
2023-01-29T02:06:07.624Z,91.53
2023-01-29T02:07:07.627Z,91.89
2023-01-29T02:08:07.625Z,91.85
2023-01-29T02:09:07.587Z,91.74
2023-01-29T02:10:07.620Z,91.85
2023-01-29T02:11:07.567Z,91.74
2023-01-29T02:12:07.600Z,92.16
2023-01-29T02:13:07.581Z,92.16
2023-01-29T02:14:07.580Z,92.31
2023-01-29T02:15:07.547Z,92.31
2023-01-29T02:16:07.533Z,92.31
2023-01-29T02:17:07.543Z,92.31
2023-01-29T02:18:07.543Z,92.21
2023-01-29T02:19:07.507Z,92.41
2023-01-29T02:20:07.504Z,92.41
2023-01-29T02:21:07.495Z,92.31
2023-01-29T02:22:07.488Z,92.31
2023-01-29T02:23:07.511Z,92.73
2023-01-29T02:24:07.615Z,92.46
2023-01-29T02:25:07.474Z,92.67
2023-01-29T02:26:07.461Z,92.67
2023-01-29T02:27:07.460Z,92.88
2023-01-29T02:28:07.484Z,92.52
2023-01-29T02:29:07.448Z,92.57
2023-01-29T02:30:07.449Z,92.88
2023-01-29T02:31:07.435Z,93.05
2023-01-29T02:32:07.422Z,92.52
2023-01-29T02:33:07.482Z,92.52
2023-01-29T02:34:07.409Z,92.52
2023-01-29T02:35:07.398Z,92.21
2023-01-29T02:36:07.389Z,92.31
2023-01-29T02:37:07.384Z,92.41
2023-01-29T02:38:07.406Z,92.27
2023-01-29T02:39:07.363Z,92.27
2023-01-29T02:40:07.373Z,92.06
2023-01-29T02:41:07.353Z,92.16
2023-01-29T02:42:07.352Z,91.85
2023-01-29T02:43:07.364Z,91.64
2023-01-29T02:44:07.332Z,91.53
2023-01-29T02:45:07.320Z,91.89
2023-01-29T02:46:07.333Z,91.89
2023-01-29T02:47:07.314Z,91.89
2023-01-29T02:48:07.346Z,91.89
2023-01-29T02:49:07.296Z,91.93
2023-01-29T02:50:07.300Z,91.78
2023-01-29T02:51:07.290Z,91.89
2023-01-29T02:52:07.282Z,91.57
2023-01-29T02:53:07.277Z,92.03
2023-01-29T02:54:07.279Z,92.03
2023-01-29T02:55:07.268Z,92.14
2023-01-29T02:56:07.243Z,92.03
2023-01-29T02:57:07.239Z,91.93
2023-01-29T02:58:07.220Z,91.93
2023-01-29T02:59:07.246Z,92.21
2023-01-29T03:00:07.215Z,91.99
2023-01-29T03:01:07.225Z,92.35
2023-01-29T03:02:07.236Z,92.31
2023-01-29T03:03:07.213Z,92.88
2023-01-29T03:04:07.236Z,92.46
2023-01-29T03:05:07.179Z,93.19
2023-01-29T03:06:07.168Z,92.84
2023-01-29T03:07:07.162Z,92.94
2023-01-29T03:08:07.152Z,92.63
2023-01-29T03:09:07.215Z,92.80
2023-01-29T03:10:07.142Z,92.94
2023-01-29T03:11:07.142Z,92.84
2023-01-29T03:12:07.132Z,92.73
2023-01-29T03:13:07.149Z,92.80
2023-01-29T03:14:07.139Z,92.63
2023-01-29T03:15:07.107Z,92.84
2023-01-29T03:16:07.150Z,92.63
2023-01-29T03:17:07.091Z,92.52
2023-01-29T03:18:07.088Z,92.84
2023-01-29T03:19:07.111Z,92.80
2023-01-29T03:20:07.095Z,92.48
2023-01-29T03:21:07.065Z,92.48
2023-01-29T03:22:07.057Z,92.63
2023-01-29T03:23:07.053Z,92.94
2023-01-29T03:24:07.119Z,92.58
2023-01-29T03:25:07.075Z,92.69
2023-01-29T03:26:07.067Z,92.48
2023-01-29T03:27:07.026Z,92.31
2023-01-29T03:28:07.007Z,92.10
2023-01-29T03:29:07.038Z,91.93
2023-01-29T03:30:06.997Z,92.25
2023-01-29T03:31:07.025Z,92.35
2023-01-29T03:32:07.053Z,92.88
2023-01-29T03:33:06.965Z,92.77
2023-01-29T03:34:07.009Z,92.57
2023-01-29T03:35:06.965Z,93.19
2023-01-29T03:36:06.966Z,92.77
2023-01-29T03:37:06.949Z,93.09
2023-01-29T03:38:06.944Z,92.99
2023-01-29T03:39:06.955Z,93.09
2023-01-29T03:40:06.951Z,92.99
2023-01-29T03:41:06.924Z,92.88
2023-01-29T03:42:06.914Z,92.77
2023-01-29T03:43:06.915Z,93.19
2023-01-29T03:44:06.891Z,93.09
2023-01-29T03:45:06.914Z,92.77
2023-01-29T03:46:06.899Z,92.77
2023-01-29T03:47:06.875Z,93.09
2023-01-29T03:48:06.866Z,92.99
2023-01-29T03:49:06.859Z,92.99
2023-01-29T03:50:06.895Z,93.09
2023-01-29T03:51:06.845Z,93.09
2023-01-29T03:52:06.833Z,93.09
2023-01-29T03:53:06.829Z,92.99
2023-01-29T03:54:06.825Z,93.09
2023-01-29T03:55:06.893Z,93.09
2023-01-29T03:56:06.806Z,92.99
2023-01-29T03:57:06.807Z,93.09
2023-01-29T03:58:06.794Z,92.77
2023-01-29T03:59:06.820Z,92.84
2023-01-29T04:00:06.800Z,92.77
2023-01-29T04:01:06.847Z,92.94
2023-01-29T04:02:06.762Z,92.99
2023-01-29T04:03:06.758Z,93.05
2023-01-29T04:04:06.801Z,92.77
2023-01-29T04:05:06.785Z,92.67
2023-01-29T04:06:06.751Z,92.57
2023-01-29T04:07:06.741Z,92.57
2023-01-29T04:08:06.725Z,92.88
2023-01-29T04:09:06.716Z,93.19
2023-01-29T04:10:06.730Z,93.09
2023-01-29T04:11:06.705Z,92.99
2023-01-29T04:12:06.685Z,92.57
2023-01-29T04:13:06.700Z,92.77
2023-01-29T04:14:06.680Z,92.77
2023-01-29T04:15:06.705Z,92.77
2023-01-29T04:16:06.725Z,92.52
2023-01-29T04:17:06.656Z,92.52
2023-01-29T04:18:06.655Z,92.57
2023-01-29T04:19:06.664Z,92.99
2023-01-29T04:20:06.661Z,93.05
2023-01-29T04:21:06.644Z,93.09
2023-01-29T04:22:06.625Z,92.67
2023-01-29T04:23:06.621Z,92.73
2023-01-29T04:24:06.658Z,92.46
2023-01-29T04:25:06.635Z,92.67
2023-01-29T04:26:06.594Z,92.73
2023-01-29T04:27:06.584Z,92.77
2023-01-29T04:28:06.588Z,92.77
2023-01-29T04:29:06.581Z,92.57
2023-01-29T04:30:06.608Z,92.84
2023-01-29T04:31:06.669Z,92.88
2023-01-29T04:32:06.551Z,92.67
2023-01-29T04:33:06.546Z,93.09
2023-01-29T04:34:06.534Z,93.09
2023-01-29T04:35:07.476Z,93.09
2023-01-29T04:36:06.527Z,92.99
2023-01-29T04:37:06.517Z,92.73
2023-01-29T04:38:06.522Z,92.63
2023-01-29T04:39:06.503Z,92.94
2023-01-29T04:40:06.525Z,92.94
2023-01-29T04:41:06.527Z,92.94
2023-01-29T04:42:06.489Z,93.19
2023-01-29T04:43:06.495Z,92.84
2023-01-29T04:44:06.474Z,92.84
2023-01-29T04:45:06.462Z,92.84
2023-01-29T04:46:06.485Z,92.84
2023-01-29T04:47:06.473Z,92.94
2023-01-29T04:48:06.443Z,92.41
2023-01-29T04:49:06.436Z,92.94
2023-01-29T04:50:06.427Z,92.41
2023-01-29T04:51:06.456Z,93.05
2023-01-29T04:52:06.421Z,92.80
2023-01-29T04:53:06.477Z,92.90
2023-01-29T04:54:39.122Z,92.80
2023-01-29T04:55:06.438Z,92.80
2023-01-29T04:56:06.452Z,92.90
2023-01-29T04:57:06.408Z,93.11
2023-01-29T04:58:06.400Z,92.90
2023-01-29T04:59:06.423Z,92.69
2023-01-29T05:00:06.373Z,92.80
2023-01-29T05:01:06.540Z,92.69
2023-01-29T05:02:06.370Z,93.01
2023-01-29T05:03:06.414Z,92.65
2023-01-29T05:04:06.344Z,92.48
2023-01-29T05:05:06.451Z,92.80
2023-01-29T05:06:06.354Z,92.80
2023-01-29T05:07:06.329Z,92.76
2023-01-29T05:08:06.364Z,92.58
2023-01-29T05:09:06.342Z,92.69
2023-01-29T05:10:06.299Z,92.80
2023-01-29T05:11:06.355Z,92.58
2023-01-29T05:12:06.316Z,92.58
2023-01-29T05:13:06.264Z,92.69
2023-01-29T05:14:06.261Z,92.48
2023-01-29T05:15:06.281Z,92.27
2023-01-29T05:16:06.555Z,92.27
2023-01-29T05:17:06.255Z,92.16
2023-01-29T05:18:06.250Z,92.27
2023-01-29T05:19:06.236Z,92.33
2023-01-29T05:20:06.263Z,91.96
2023-01-29T05:21:06.273Z,92.27
2023-01-29T05:22:06.230Z,92.23
2023-01-29T05:23:06.225Z,92.33
2023-01-29T05:24:06.234Z,92.27
2023-01-29T05:25:06.187Z,91.96
2023-01-29T05:26:06.239Z,91.91
2023-01-29T05:27:06.208Z,91.85
2023-01-29T05:28:06.165Z,91.70
2023-01-29T05:29:06.158Z,91.81
2023-01-29T05:30:06.180Z,91.74
2023-01-29T05:31:06.311Z,91.85
2023-01-29T05:32:06.169Z,91.70
2023-01-29T05:33:06.179Z,91.74
2023-01-29T05:34:06.152Z,91.74
2023-01-29T05:35:06.155Z,91.28
2023-01-29T05:36:07.002Z,92.16
2023-01-29T05:37:07.103Z,92.38
2023-01-29T05:38:06.105Z,92.44
2023-01-29T05:39:06.059Z,92.80
2023-01-29T05:40:06.078Z,92.44
2023-01-29T05:41:06.098Z,92.86
2023-01-29T05:42:06.060Z,92.86
2023-01-29T05:43:06.040Z,92.27
2023-01-29T05:44:06.065Z,92.65
2023-01-29T05:45:06.065Z,92.76
2023-01-29T05:46:06.046Z,92.80
2023-01-29T05:47:06.016Z,92.44
2023-01-29T05:48:06.055Z,92.76
2023-01-29T05:49:06.000Z,92.80
2023-01-29T05:50:06.056Z,92.69
2023-01-29T05:51:06.007Z,92.38
2023-01-29T05:52:05.981Z,92.90
2023-01-29T05:53:05.978Z,92.80
2023-01-29T05:54:05.982Z,92.69
2023-01-29T05:55:05.991Z,92.80
2023-01-29T05:56:05.945Z,93.11
2023-01-29T05:57:06.011Z,92.80
2023-01-29T05:58:06.095Z,92.80
2023-01-29T05:59:06.976Z,92.80
2023-01-29T06:00:05.926Z,92.90
2023-01-29T06:01:05.921Z,92.80
2023-01-29T06:02:05.982Z,92.69
2023-01-29T06:03:05.929Z,92.94
2023-01-29T06:04:05.910Z,92.90
2023-01-29T06:05:05.899Z,93.01
2023-01-29T06:06:05.882Z,92.84
2023-01-29T06:07:05.936Z,92.52
2023-01-29T06:08:05.870Z,92.80
2023-01-29T06:09:05.874Z,93.11
2023-01-29T06:10:05.920Z,92.84
2023-01-29T06:11:05.842Z,92.80
2023-01-29T06:12:05.866Z,93.01
2023-01-29T06:13:05.841Z,92.80
2023-01-29T06:14:05.837Z,92.90
2023-01-29T06:15:05.843Z,92.90
2023-01-29T06:16:05.807Z,93.43
2023-01-29T06:17:05.847Z,93.53
2023-01-29T06:18:05.817Z,93.01
2023-01-29T06:19:05.783Z,93.01
2023-01-29T06:20:05.888Z,93.15
2023-01-29T06:21:05.917Z,93.01
2023-01-29T06:22:05.869Z,93.32
2023-01-29T06:23:05.902Z,93.01
2023-01-29T06:24:05.837Z,93.53
2023-01-29T06:25:05.762Z,93.32
2023-01-29T06:26:05.765Z,92.90
2023-01-29T06:27:05.790Z,92.90
2023-01-29T06:28:05.734Z,93.01
2023-01-29T06:29:05.732Z,93.11
2023-01-29T06:30:05.691Z,92.69
2023-01-29T06:31:23.801Z,92.69
2023-01-29T06:32:07.799Z,92.58
2023-01-29T06:33:05.801Z,92.90
2023-01-29T06:34:06.702Z,93.32
2023-01-29T06:35:05.677Z,92.80
2023-01-29T06:36:05.685Z,92.94
2023-01-29T06:37:05.800Z,92.80
2023-01-29T06:38:05.680Z,93.01
2023-01-29T06:39:05.643Z,93.05
2023-01-29T06:40:05.657Z,93.26
2023-01-29T06:41:05.624Z,93.01
2023-01-29T06:42:05.663Z,92.94
2023-01-29T06:43:05.634Z,92.94
2023-01-29T06:44:05.649Z,92.73
2023-01-29T06:45:05.640Z,92.94
2023-01-29T06:46:05.595Z,92.94
2023-01-29T06:47:05.667Z,92.73
2023-01-29T06:48:05.605Z,92.94
2023-01-29T06:49:05.575Z,92.73
2023-01-29T06:50:05.597Z,92.94
2023-01-29T06:51:05.583Z,92.63
2023-01-29T06:52:05.652Z,92.84
2023-01-29T06:53:06.666Z,92.84
2023-01-29T06:54:05.563Z,92.58
2023-01-29T06:55:05.562Z,93.32
2023-01-29T06:56:05.566Z,93.22
2023-01-29T06:57:05.575Z,93.01
2023-01-29T06:58:05.546Z,92.73
2023-01-29T06:59:05.624Z,93.15
2023-01-29T07:00:05.520Z,93.05
2023-01-29T07:01:05.552Z,93.37
2023-01-29T07:02:05.560Z,92.94
2023-01-29T07:03:05.535Z,92.94
2023-01-29T07:04:05.495Z,92.94
2023-01-29T07:05:05.485Z,93.05
2023-01-29T07:06:05.457Z,92.84
2023-01-29T07:07:05.518Z,92.73
2023-01-29T07:08:05.453Z,93.05
2023-01-29T07:09:05.456Z,92.63
2023-01-29T07:10:05.428Z,92.84
2023-01-29T07:11:05.415Z,92.80
2023-01-29T07:12:05.435Z,93.05
2023-01-29T07:13:05.398Z,92.77
2023-01-29T07:14:05.391Z,92.94
2023-01-29T07:15:05.379Z,92.84
2023-01-29T07:16:05.404Z,93.05
2023-01-29T07:17:05.442Z,92.73
2023-01-29T07:18:05.388Z,92.94
2023-01-29T07:19:05.363Z,93.15
2023-01-29T07:20:05.356Z,93.26
2023-01-29T07:21:05.332Z,93.05
2023-01-29T07:22:05.500Z,93.05
2023-01-29T07:23:05.355Z,93.57
2023-01-29T07:24:05.392Z,94.21
2023-01-29T07:25:05.358Z,94.10
2023-01-29T07:26:05.360Z,93.15
2023-01-29T07:27:05.352Z,93.11
2023-01-29T07:28:05.328Z,92.84
2023-01-29T07:29:05.302Z,92.90
2023-01-29T07:30:05.299Z,92.41
2023-01-29T07:31:05.319Z,92.84
2023-01-29T07:32:05.390Z,93.09
2023-01-29T07:33:07.334Z,92.46
2023-01-29T07:34:06.257Z,92.40
2023-01-29T07:35:05.252Z,92.50
2023-01-29T07:36:05.344Z,92.40
2023-01-29T07:37:05.330Z,92.50
2023-01-29T07:38:05.275Z,92.60
2023-01-29T07:39:05.242Z,92.60
2023-01-29T07:40:05.260Z,93.03
2023-01-29T07:41:05.209Z,92.92
2023-01-29T07:42:05.212Z,92.92
2023-01-29T07:43:05.263Z,92.71
2023-01-29T07:44:05.177Z,92.92
2023-01-29T07:45:05.213Z,92.92
2023-01-29T07:46:05.203Z,92.82
2023-01-29T07:47:05.261Z,92.71
2023-01-29T07:48:05.222Z,92.88
2023-01-29T07:49:05.279Z,92.77
2023-01-29T07:50:05.164Z,92.63
2023-01-29T07:51:05.152Z,93.11
2023-01-29T07:52:05.172Z,92.80
2023-01-29T07:53:06.144Z,92.69
2023-01-29T07:54:05.155Z,92.76
2023-01-29T07:55:05.135Z,92.33
2023-01-29T07:56:05.110Z,92.23
2023-01-29T07:57:05.137Z,92.29
2023-01-29T07:58:05.172Z,91.97
2023-01-29T07:59:05.085Z,91.77
2023-01-29T08:00:05.226Z,91.51
2023-01-29T08:01:05.086Z,91.51
2023-01-29T08:02:05.088Z,91.62
2023-01-29T08:03:05.129Z,91.16
2023-01-29T08:04:05.058Z,91.05
2023-01-29T08:05:05.017Z,90.84
2023-01-29T08:06:05.065Z,90.63
2023-01-29T08:07:05.051Z,90.94
2023-01-29T08:08:07.397Z,90.94
2023-01-29T08:09:06.038Z,90.11
2023-01-29T08:10:05.027Z,89.96
2023-01-29T08:11:05.166Z,89.75
2023-01-29T08:12:05.016Z,89.69
2023-01-29T08:13:05.092Z,89.75
2023-01-29T08:14:05.047Z,89.86
2023-01-29T08:15:04.986Z,89.22
2023-01-29T08:16:04.989Z,89.05
2023-01-29T08:17:04.946Z,89.37
2023-01-29T08:18:05.003Z,89.69
2023-01-29T08:19:04.953Z,89.89
2023-01-29T08:20:04.948Z,89.69
2023-01-29T08:21:04.955Z,89.79
2023-01-29T08:22:04.928Z,90.00
2023-01-29T08:23:04.971Z,89.47
2023-01-29T08:24:04.931Z,89.32
2023-01-29T08:25:08.717Z,89.54
2023-01-29T08:26:05.896Z,89.64
2023-01-29T08:27:04.927Z,89.69
2023-01-29T08:28:04.962Z,89.75
2023-01-29T08:29:04.877Z,89.89
2023-01-29T08:30:04.895Z,89.54
2023-01-29T08:31:04.944Z,89.75
2023-01-29T08:32:05.033Z,89.12
2023-01-29T08:33:04.867Z,88.91
2023-01-29T08:34:04.970Z,88.80
2023-01-29T08:35:04.940Z,88.80
2023-01-29T08:36:04.822Z,88.84
2023-01-29T08:37:04.863Z,88.70
2023-01-29T08:38:04.827Z,88.70
2023-01-29T08:39:04.802Z,88.59
2023-01-29T08:40:04.793Z,88.80
2023-01-29T08:41:04.783Z,88.80
2023-01-29T08:42:04.756Z,88.80
2023-01-29T08:43:06.848Z,88.70
2023-01-29T08:44:04.768Z,88.59
2023-01-29T08:45:04.761Z,88.59
2023-01-29T08:46:04.845Z,88.74
2023-01-29T08:47:04.734Z,88.91
2023-01-29T08:48:04.789Z,88.95
2023-01-29T08:49:04.729Z,88.84
2023-01-29T08:50:04.730Z,88.59
2023-01-29T08:51:04.770Z,88.91
2023-01-29T08:52:04.710Z,88.59
2023-01-29T08:53:04.737Z,88.74
2023-01-29T08:54:04.715Z,88.95
2023-01-29T08:55:04.692Z,88.70
2023-01-29T08:56:04.783Z,88.74
2023-01-29T08:57:04.677Z,88.80
2023-01-29T08:58:04.700Z,88.95
2023-01-29T08:59:04.665Z,88.70
2023-01-29T09:00:04.648Z,88.84
2023-01-29T09:01:04.683Z,88.95
2023-01-29T09:02:04.670Z,88.95
2023-01-29T09:03:04.642Z,89.05
2023-01-29T09:04:04.690Z,88.70
2023-01-29T09:05:04.677Z,88.80
2023-01-29T09:06:04.700Z,88.91
2023-01-29T09:07:04.707Z,88.49
2023-01-29T09:08:04.611Z,88.42
2023-01-29T09:09:04.570Z,88.95
2023-01-29T09:10:04.583Z,88.38
2023-01-29T09:11:04.600Z,88.07
2023-01-29T09:12:04.589Z,88.80
2023-01-29T09:13:04.606Z,88.91
2023-01-29T09:14:04.547Z,88.80
2023-01-29T09:15:04.523Z,88.59
2023-01-29T09:16:04.577Z,87.85
2023-01-29T09:17:04.533Z,89.01
2023-01-29T09:18:04.550Z,88.87
2023-01-29T09:19:04.494Z,88.70
2023-01-29T09:20:04.602Z,88.76
2023-01-29T09:21:04.508Z,88.66
2023-01-29T09:22:04.499Z,88.76
2023-01-29T09:23:04.468Z,88.76
2023-01-29T09:24:04.481Z,87.82
2023-01-29T09:25:04.510Z,88.30
2023-01-29T09:26:04.542Z,87.77
2023-01-29T09:27:04.494Z,87.88
2023-01-29T09:28:04.466Z,87.99
2023-01-29T09:29:04.455Z,87.74
2023-01-29T09:30:04.444Z,87.84
2023-01-29T09:31:04.684Z,87.80
2023-01-29T09:32:04.469Z,87.17
2023-01-29T09:33:04.396Z,87.17
2023-01-29T09:34:04.392Z,87.17
2023-01-29T09:35:04.401Z,87.17
2023-01-29T09:36:04.453Z,87.13
2023-01-29T09:37:05.439Z,86.82
2023-01-29T09:38:04.376Z,86.61
2023-01-29T09:39:04.348Z,86.61
2023-01-29T09:40:04.379Z,86.92
2023-01-29T09:41:04.352Z,86.29
2023-01-29T09:42:04.367Z,86.40
2023-01-29T09:43:04.430Z,86.19
2023-01-29T09:44:04.377Z,85.42
2023-01-29T09:45:04.338Z,85.77
2023-01-29T09:46:04.354Z,85.46
2023-01-29T09:47:04.298Z,85.63
2023-01-29T09:48:04.305Z,84.89
2023-01-29T09:49:04.280Z,85.03
2023-01-29T09:50:04.286Z,85.03
2023-01-29T09:51:04.332Z,85.03
2023-01-29T09:52:04.281Z,85.25
2023-01-29T09:53:04.292Z,84.93
2023-01-29T09:54:04.355Z,85.35
2023-01-29T09:55:05.262Z,84.83
2023-01-29T09:56:04.287Z,85.66
2023-01-29T09:57:04.327Z,85.35
2023-01-29T09:58:04.219Z,85.56
2023-01-29T09:59:04.232Z,84.72
2023-01-29T10:00:04.260Z,85.56
2023-01-29T10:01:04.281Z,85.66
2023-01-29T10:02:04.462Z,85.66
2023-01-29T10:03:04.215Z,85.66
2023-01-29T10:04:04.283Z,85.66
2023-01-29T10:05:04.168Z,84.68
2023-01-29T10:06:04.223Z,85.25
2023-01-29T10:07:04.315Z,85.63
2023-01-29T10:08:04.168Z,85.10
2023-01-29T10:09:04.147Z,84.79
2023-01-29T10:10:04.177Z,84.44
2023-01-29T10:11:04.268Z,84.33
2023-01-29T10:12:04.227Z,83.95
2023-01-29T10:13:04.237Z,84.12
2023-01-29T10:14:04.144Z,84.33
2023-01-29T10:15:04.244Z,83.91
2023-01-29T10:16:04.202Z,83.18
2023-01-29T10:17:04.177Z,83.39
2023-01-29T10:18:04.113Z,83.49
2023-01-29T10:19:05.154Z,83.49
2023-01-29T10:20:04.064Z,83.18
2023-01-29T10:21:04.092Z,83.18
2023-01-29T10:22:04.117Z,83.28
2023-01-29T10:23:04.054Z,83.39
2023-01-29T10:24:04.141Z,83.14
2023-01-29T10:25:04.026Z,82.65
2023-01-29T10:26:04.086Z,82.76
2023-01-29T10:27:04.083Z,82.86
2023-01-29T10:28:04.003Z,82.76
2023-01-29T10:29:03.997Z,82.76
2023-01-29T10:30:03.998Z,82.51
2023-01-29T10:31:04.256Z,82.76
2023-01-29T10:32:04.160Z,81.99
2023-01-29T10:33:04.033Z,82.20
2023-01-29T10:34:04.006Z,82.34
2023-01-29T10:35:03.938Z,82.34
2023-01-29T10:36:03.993Z,82.62
2023-01-29T10:37:03.971Z,82.97
2023-01-29T10:38:04.016Z,82.51
2023-01-29T10:39:03.920Z,82.40
2023-01-29T10:40:03.915Z,82.72
2023-01-29T10:41:03.908Z,82.76
2023-01-29T10:42:03.990Z,82.62
2023-01-29T10:43:03.878Z,82.93
2023-01-29T10:44:03.940Z,83.03
2023-01-29T10:45:03.862Z,82.93
2023-01-29T10:46:03.878Z,82.72
2023-01-29T10:47:03.934Z,82.93
2023-01-29T10:48:03.826Z,82.72
2023-01-29T10:49:03.840Z,82.72
2023-01-29T10:50:03.838Z,82.62
2023-01-29T10:51:03.926Z,82.62
2023-01-29T10:52:03.864Z,82.68
2023-01-29T10:53:03.891Z,82.62
2023-01-29T10:54:03.786Z,82.26
2023-01-29T10:55:36.646Z,82.26
2023-01-29T10:56:10.801Z,82.26
2023-01-29T10:57:05.873Z,82.02
2023-01-29T10:58:03.769Z,81.63
2023-01-29T10:59:03.751Z,81.18
2023-01-29T11:00:03.778Z,80.97
2023-01-29T11:01:03.725Z,81.43
2023-01-29T11:02:03.736Z,81.49
2023-01-29T11:03:05.282Z,81.81
2023-01-29T11:04:03.722Z,81.70
2023-01-29T11:05:03.706Z,81.70
2023-01-29T11:06:03.694Z,81.39
2023-01-29T11:07:03.681Z,81.35
2023-01-29T11:08:03.712Z,81.04
2023-01-29T11:09:03.671Z,81.21
2023-01-29T11:10:03.662Z,81.25
2023-01-29T11:11:03.655Z,80.41
2023-01-29T11:12:03.639Z,80.58
2023-01-29T11:13:03.667Z,80.73
2023-01-29T11:14:03.622Z,79.99
2023-01-29T11:15:03.617Z,80.73
2023-01-29T11:16:03.615Z,80.62
2023-01-29T11:17:03.666Z,80.52
2023-01-29T11:18:03.625Z,81.15
2023-01-29T11:19:03.590Z,81.07
2023-01-29T11:20:03.589Z,81.04
2023-01-29T11:21:03.577Z,80.69
2023-01-29T11:22:03.567Z,80.16
2023-01-29T11:23:03.578Z,80.02
2023-01-29T11:24:03.546Z,80.02
2023-01-29T11:25:03.543Z,80.30
2023-01-29T11:26:03.529Z,78.94
2023-01-29T11:27:03.535Z,78.77
2023-01-29T11:28:03.554Z,79.08
2023-01-29T11:29:03.511Z,78.67
2023-01-29T11:30:03.507Z,78.46
2023-01-29T11:31:03.536Z,79.29
2023-01-29T11:32:03.485Z,79.57
2023-01-29T11:33:03.524Z,79.29
2023-01-29T11:34:03.493Z,79.36
2023-01-29T11:35:03.467Z,78.84
2023-01-29T11:36:03.455Z,79.15
2023-01-29T11:37:03.449Z,78.84
2023-01-29T11:38:03.467Z,78.63
2023-01-29T11:39:03.428Z,78.98
2023-01-29T11:40:03.437Z,78.77
2023-01-29T11:41:03.427Z,79.26
2023-01-29T11:42:03.416Z,78.77
2023-01-29T11:43:03.442Z,79.19
2023-01-29T11:44:03.403Z,78.91
2023-01-29T11:45:03.429Z,78.88
2023-01-29T11:46:03.506Z,79.40
2023-01-29T11:47:03.374Z,79.12
2023-01-29T11:48:03.387Z,79.96
2023-01-29T11:49:14.301Z,80.16
2023-01-29T11:50:05.363Z,80.16
2023-01-29T11:51:05.524Z,79.33
2023-01-29T11:52:03.335Z,79.96
2023-01-29T11:53:03.367Z,80.02
2023-01-29T11:54:03.325Z,79.12
2023-01-29T11:55:03.313Z,79.40
2023-01-29T11:56:03.314Z,79.61
2023-01-29T11:57:03.317Z,79.33
2023-01-29T11:58:03.323Z,79.22
2023-01-29T11:59:03.311Z,79.44
2023-01-29T12:00:03.278Z,79.96
2023-01-29T12:01:03.385Z,79.64
2023-01-29T12:02:03.281Z,79.96
2023-01-29T12:03:03.348Z,79.44
2023-01-29T12:04:03.285Z,80.16
2023-01-29T12:05:03.250Z,79.29
2023-01-29T12:06:03.282Z,79.92
2023-01-29T12:07:03.227Z,79.50
2023-01-29T12:08:03.254Z,78.77
2023-01-29T12:09:03.221Z,78.77
2023-01-29T12:10:03.214Z,78.67
2023-01-29T12:11:03.199Z,78.98
2023-01-29T12:12:03.207Z,79.29
2023-01-29T12:13:03.227Z,79.08
2023-01-29T12:14:03.182Z,78.63
2023-01-29T12:15:03.264Z,79.08
2023-01-29T12:16:03.193Z,78.56
2023-01-29T12:17:03.159Z,79.08
2023-01-29T12:18:03.177Z,78.53
2023-01-29T12:19:03.139Z,78.32
2023-01-29T12:20:03.149Z,78.32
2023-01-29T12:21:03.118Z,77.90
2023-01-29T12:22:04.009Z,78.00
2023-01-29T12:23:04.159Z,78.21
2023-01-29T12:24:03.106Z,78.18
2023-01-29T12:25:03.097Z,78.18
2023-01-29T12:26:03.081Z,77.90
2023-01-29T12:27:03.085Z,76.82
2023-01-29T12:28:03.098Z,76.92
2023-01-29T12:29:03.062Z,77.76
2023-01-29T12:30:03.055Z,77.55
2023-01-29T12:31:03.057Z,77.10
2023-01-29T12:32:03.034Z,77.20
2023-01-29T12:33:03.034Z,76.89
2023-01-29T12:34:03.053Z,77.14
2023-01-29T12:35:03.016Z,77.10
2023-01-29T12:36:03.001Z,76.89
2023-01-29T12:37:03.002Z,76.61
2023-01-29T12:38:03.159Z,76.92
2023-01-29T12:39:03.008Z,76.92
2023-01-29T12:40:02.973Z,77.14
2023-01-29T12:41:02.982Z,76.82
2023-01-29T12:42:02.959Z,76.92
2023-01-29T12:43:02.962Z,76.82
2023-01-29T12:44:02.985Z,77.24
2023-01-29T12:45:02.948Z,77.14
2023-01-29T12:46:02.927Z,76.82
2023-01-29T12:47:03.017Z,76.82
2023-01-29T12:48:02.919Z,76.92
2023-01-29T12:49:02.938Z,76.92
2023-01-29T12:50:02.901Z,76.72
2023-01-29T12:51:02.895Z,77.03
2023-01-29T12:52:03.034Z,76.68